sensor_id;sensor_type;location;lat;lon;timestamp;pressure;altitude;pressure_sealevel;temperature;humidity
12624;BME280;6377;42.836;23.998;2023-02-13T00:00:54;97449.41;;;0.12;100.00
12624;BME280;6377;42.836;23.998;2023-02-13T00:03:21;97398.81;;;-0.37;100.00
12624;BME280;6377;42.836;23.998;2023-02-13T00:05:49;97361.16;;;-0.28;100.00
12624;BME280;6377;42.836;23.998;2023-02-13T00:08:16;97448.22;;;0.19;100.00
12624;BME280;6377;42.836;23.998;2023-02-13T00:10:46;97466.56;;;0.35;100.00
12624;BME280;6377;42.836;23.998;2023-02-13T00:13:13;97461.09;;;0.22;100.00
12624;BME280;6377;42.836;23.998;2023-02-13T00:15:41;97439.50;;;0.20;100.00
12624;BME280;6377;42.836;23.998;2023-02-13T00:20:43;97471.78;;;0.35;100.00
12624;BME280;6377;42.836;23.998;2023-02-13T00:25:47;97486.56;;;0.51;100.00
12624;BME280;6377;42.836;23.998;2023-02-13T00:28:15;97467.63;;;0.31;100.00
12624;BME280;6377;42.836;23.998;2023-02-13T00:30:42;97410.91;;;0.02;100.00
12624;BME280;6377;42.836;23.998;2023-02-13T00:33:09;97483.78;;;0.37;100.00
12624;BME280;6377;42.836;23.998;2023-02-13T00:35:36;97489.69;;;0.41;100.00
12624;BME280;6377;42.836;23.998;2023-02-13T00:38:03;97486.16;;;0.42;100.00
12624;BME280;6377;42.836;23.998;2023-02-13T00:40:31;97484.69;;;0.36;100.00
12624;BME280;6377;42.836;23.998;2023-02-13T00:42:59;97487.94;;;0.23;100.00
12624;BME280;6377;42.836;23.998;2023-02-13T00:45:27;97493.22;;;0.21;100.00
12624;BME280;6377;42.836;23.998;2023-02-13T00:47:54;97482.97;;;-0.01;100.00
12624;BME280;6377;42.836;23.998;2023-02-13T00:50:21;97464.81;;;-0.02;100.00
12624;BME280;6377;42.836;23.998;2023-02-13T00:52:48;97491.69;;;0.17;100.00
12624;BME280;6377;42.836;23.998;2023-02-13T01:00:21;97473.06;;;0.08;100.00
12624;BME280;6377;42.836;23.998;2023-02-13T01:02:48;97430.66;;;-0.13;100.00
12624;BME280;6377;42.836;23.998;2023-02-13T01:05:16;97483.31;;;0.11;100.00
12624;BME280;6377;42.836;23.998;2023-02-13T01:07:43;97468.53;;;-0.08;100.00
12624;BME280;6377;42.836;23.998;2023-02-13T01:10:10;97495.41;;;0.12;100.00
12624;BME280;6377;42.836;23.998;2023-02-13T01:12:37;97500.69;;;0.10;100.00
12624;BME280;6377;42.836;23.998;2023-02-13T01:15:05;97499.19;;;0.05;100.00
12624;BME280;6377;42.836;23.998;2023-02-13T01:17:34;97506.28;;;0.01;100.00
12624;BME280;6377;42.836;23.998;2023-02-13T01:20:05;97496.25;;;-0.07;100.00
12624;BME280;6377;42.836;23.998;2023-02-13T01:22:32;97492.31;;;0.04;100.00
12624;BME280;6377;42.836;23.998;2023-02-13T01:25:00;97420.78;;;-0.44;100.00
12624;BME280;6377;42.836;23.998;2023-02-13T01:27:28;97479.03;;;-0.09;100.00
12624;BME280;6377;42.836;23.998;2023-02-13T01:29:55;97502.16;;;0.16;100.00
12624;BME280;6377;42.836;23.998;2023-02-13T01:32:23;97457.03;;;-0.21;100.00
12624;BME280;6377;42.836;23.998;2023-02-13T01:34:52;97438.81;;;-0.21;100.00
12624;BME280;6377;42.836;23.998;2023-02-13T01:37:19;97462.38;;;-0.24;100.00
12624;BME280;6377;42.836;23.998;2023-02-13T01:39:46;97448.84;;;-0.32;100.00
12624;BME280;6377;42.836;23.998;2023-02-13T01:42:15;97496.09;;;-0.22;100.00
12624;BME280;6377;42.836;23.998;2023-02-13T01:44:46;97472.38;;;-0.35;100.00
12624;BME280;6377;42.836;23.998;2023-02-13T01:47:19;97498.28;;;-0.13;100.00
12624;BME280;6377;42.836;23.998;2023-02-13T01:49:48;97437.94;;;-0.40;100.00
12624;BME280;6377;42.836;23.998;2023-02-13T01:52:18;97470.09;;;-0.22;100.00
12624;BME280;6377;42.836;23.998;2023-02-13T01:54:46;97483.38;;;-0.10;100.00
12624;BME280;6377;42.836;23.998;2023-02-13T01:57:16;97454.84;;;-0.30;100.00
12624;BME280;6377;42.836;23.998;2023-02-13T01:59:48;97489.97;;;-0.03;100.00
12624;BME280;6377;42.836;23.998;2023-02-13T02:02:18;97478.81;;;-0.05;100.00
12624;BME280;6377;42.836;23.998;2023-02-13T02:04:46;97498.22;;;0.07;100.00
12624;BME280;6377;42.836;23.998;2023-02-13T02:07:20;97491.13;;;0.11;100.00
12624;BME280;6377;42.836;23.998;2023-02-13T02:09:51;97495.97;;;0.18;100.00
12624;BME280;6377;42.836;23.998;2023-02-13T02:12:24;97494.06;;;0.22;100.00
12624;BME280;6377;42.836;23.998;2023-02-13T02:14:53;97493.91;;;0.25;100.00
12624;BME280;6377;42.836;23.998;2023-02-13T02:17:22;97478.69;;;0.17;100.00
12624;BME280;6377;42.836;23.998;2023-02-13T02:19:58;97499.06;;;0.26;100.00
12624;BME280;6377;42.836;23.998;2023-02-13T02:25:51;97496.31;;;0.29;100.00
12624;BME280;6377;42.836;23.998;2023-02-13T02:28:38;97495.47;;;0.29;100.00
12624;BME280;6377;42.836;23.998;2023-02-13T02:34:22;97446.31;;;0.04;100.00
12624;BME280;6377;42.836;23.998;2023-02-13T02:37:02;97488.19;;;0.35;100.00
12624;BME280;6377;42.836;23.998;2023-02-13T02:39:38;97465.66;;;-0.02;100.00
12624;BME280;6377;42.836;23.998;2023-02-13T02:42:17;97455.75;;;-0.12;100.00
12624;BME280;6377;42.836;23.998;2023-02-13T02:44:53;97461.50;;;-0.24;100.00
12624;BME280;6377;42.836;23.998;2023-02-13T02:47:24;97460.44;;;-0.39;100.00
12624;BME280;6377;42.836;23.998;2023-02-13T02:50:28;97461.72;;;-0.29;100.00
12624;BME280;6377;42.836;23.998;2023-02-13T02:53:06;97454.84;;;-0.30;100.00
12624;BME280;6377;42.836;23.998;2023-02-13T02:55:43;97444.13;;;-0.42;100.00
12624;BME280;6377;42.836;23.998;2023-02-13T02:58:18;97414.53;;;-0.59;100.00
12624;BME280;6377;42.836;23.998;2023-02-13T03:01:07;97442.03;;;-0.34;100.00
12624;BME280;6377;42.836;23.998;2023-02-13T03:03:54;97469.81;;;-0.16;100.00
12624;BME280;6377;42.836;23.998;2023-02-13T03:06:46;97486.25;;;0.03;100.00
12624;BME280;6377;42.836;23.998;2023-02-13T03:09:19;97472.84;;;-0.07;100.00
12624;BME280;6377;42.836;23.998;2023-02-13T03:12:05;97416.03;;;-0.53;100.00
12624;BME280;6377;42.836;23.998;2023-02-13T03:14:51;97438.16;;;-0.44;100.00
12624;BME280;6377;42.836;23.998;2023-02-13T03:17:18;97479.34;;;-0.17;100.00
12624;BME280;6377;42.836;23.998;2023-02-13T03:20:13;97466.44;;;-0.18;100.00
12624;BME280;6377;42.836;23.998;2023-02-13T03:23:24;97469.03;;;-0.18;100.00
12624;BME280;6377;42.836;23.998;2023-02-13T03:26:24;97467.69;;;-0.27;100.00
12624;BME280;6377;42.836;23.998;2023-02-13T03:29:05;97443.06;;;-0.57;100.00
12624;BME280;6377;42.836;23.998;2023-02-13T03:31:53;97464.06;;;-0.43;100.00
12624;BME280;6377;42.836;23.998;2023-02-13T03:34:29;97428.13;;;-0.72;100.00
12624;BME280;6377;42.836;23.998;2023-02-13T03:37:20;97459.00;;;-0.85;100.00
12624;BME280;6377;42.836;23.998;2023-02-13T03:40:15;97472.63;;;-0.60;100.00
12624;BME280;6377;42.836;23.998;2023-02-13T03:42:49;97480.41;;;-0.60;100.00
12624;BME280;6377;42.836;23.998;2023-02-13T03:45:22;97408.53;;;-0.99;100.00
12624;BME280;6377;42.836;23.998;2023-02-13T03:48:09;97468.69;;;-0.68;100.00
12624;BME280;6377;42.836;23.998;2023-02-13T03:50:58;97481.97;;;-0.56;100.00
12624;BME280;6377;42.836;23.998;2023-02-13T03:53:27;97478.84;;;-0.64;100.00
12624;BME280;6377;42.836;23.998;2023-02-13T03:56:00;97490.47;;;-0.52;100.00
12624;BME280;6377;42.836;23.998;2023-02-13T03:58:49;97483.59;;;-0.53;100.00
12624;BME280;6377;42.836;23.998;2023-02-13T04:01:36;97459.00;;;-0.85;100.00
12624;BME280;6377;42.836;23.998;2023-02-13T04:04:08;97487.56;;;-0.85;100.00
12624;BME280;6377;42.836;23.998;2023-02-13T04:06:39;97474.00;;;-0.91;100.00
12624;BME280;6377;42.836;23.998;2023-02-13T04:09:09;97462.25;;;-1.00;100.00
12624;BME280;6377;42.836;23.998;2023-02-13T04:11:41;97496.19;;;-0.84;100.00
12624;BME280;6377;42.836;23.998;2023-02-13T04:14:19;97496.72;;;-0.96;100.00
12624;BME280;6377;42.836;23.998;2023-02-13T04:16:51;97407.06;;;-1.67;100.00
12624;BME280;6377;42.836;23.998;2023-02-13T04:19:19;97507.72;;;-1.12;100.00
12624;BME280;6377;42.836;23.998;2023-02-13T04:21:50;97516.03;;;-1.24;100.00
12624;BME280;6377;42.836;23.998;2023-02-13T04:24:21;97533.56;;;-1.08;100.00
12624;BME280;6377;42.836;23.998;2023-02-13T04:26:50;97499.25;;;-1.15;100.00
12624;BME280;6377;42.836;23.998;2023-02-13T04:29:19;97461.66;;;-1.70;100.00
12624;BME280;6377;42.836;23.998;2023-02-13T04:31:46;97500.28;;;-1.41;100.00
12624;BME280;6377;42.836;23.998;2023-02-13T04:34:13;97506.09;;;-1.56;100.00
12624;BME280;6377;42.836;23.998;2023-02-13T04:36:40;97516.34;;;-1.75;100.00
12624;BME280;6377;42.836;23.998;2023-02-13T04:39:09;97485.50;;;-1.82;100.00
12624;BME280;6377;42.836;23.998;2023-02-13T04:41:36;97356.00;;;-2.75;100.00
12624;BME280;6377;42.836;23.998;2023-02-13T04:44:06;97440.28;;;-2.20;100.00
12624;BME280;6377;42.836;23.998;2023-02-13T04:46:33;97504.34;;;-1.77;100.00
12624;BME280;6377;42.836;23.998;2023-02-13T04:49:00;97492.88;;;-1.72;100.00
12624;BME280;6377;42.836;23.998;2023-02-13T04:51:27;97525.97;;;-1.78;100.00
12624;BME280;6377;42.836;23.998;2023-02-13T04:53:54;97499.75;;;-1.71;100.00
12624;BME280;6377;42.836;23.998;2023-02-13T04:56:21;97506.72;;;-1.73;100.00
12624;BME280;6377;42.836;23.998;2023-02-13T04:58:49;97511.69;;;-1.66;100.00
12624;BME280;6377;42.836;23.998;2023-02-13T05:01:17;97502.94;;;-1.64;100.00
12624;BME280;6377;42.836;23.998;2023-02-13T05:03:44;97457.31;;;-2.13;100.00
12624;BME280;6377;42.836;23.998;2023-02-13T05:06:12;97463.34;;;-2.12;100.00
12624;BME280;6377;42.836;23.998;2023-02-13T05:08:39;97508.84;;;-1.82;100.00
12624;BME280;6377;42.836;23.998;2023-02-13T05:11:06;97420.53;;;-2.46;100.00
12624;BME280;6377;42.836;23.998;2023-02-13T05:13:34;97419.25;;;-2.57;100.00
12624;BME280;6377;42.836;23.998;2023-02-13T05:16:01;97449.84;;;-2.44;100.00
12624;BME280;6377;42.836;23.998;2023-02-13T05:18:30;97536.69;;;-1.87;100.00
12624;BME280;6377;42.836;23.998;2023-02-13T05:20:57;97338.00;;;-3.01;100.00
12624;BME280;6377;42.836;23.998;2023-02-13T05:23:41;97493.38;;;-2.07;100.00
12624;BME280;6377;42.836;23.998;2023-02-13T05:26:08;97531.16;;;-1.78;100.00
12624;BME280;6377;42.836;23.998;2023-02-13T05:28:36;97534.53;;;-1.76;100.00
12624;BME280;6377;42.836;23.998;2023-02-13T05:31:20;97537.13;;;-1.76;100.00
12624;BME280;6377;42.836;23.998;2023-02-13T05:33:49;97531.00;;;-1.74;100.00
12624;BME280;6377;42.836;23.998;2023-02-13T05:36:16;97528.53;;;-1.77;100.00
12624;BME280;6377;42.836;23.998;2023-02-13T05:38:43;97496.94;;;-2.09;100.00
12624;BME280;6377;42.836;23.998;2023-02-13T05:41:10;97505.38;;;-2.04;100.00
12624;BME280;6377;42.836;23.998;2023-02-13T05:43:38;97507.00;;;-2.02;100.00
12624;BME280;6377;42.836;23.998;2023-02-13T05:46:07;97537.38;;;-1.82;100.00
12624;BME280;6377;42.836;23.998;2023-02-13T05:48:35;97535.69;;;-1.83;100.00
12624;BME280;6377;42.836;23.998;2023-02-13T05:51:05;97534.50;;;-1.98;100.00
12624;BME280;6377;42.836;23.998;2023-02-13T05:53:32;97490.22;;;-2.38;100.00
12624;BME280;6377;42.836;23.998;2023-02-13T05:56:00;97523.06;;;-1.92;100.00
12624;BME280;6377;42.836;23.998;2023-02-13T05:58:28;97553.63;;;-1.77;100.00
12624;BME280;6377;42.836;23.998;2023-02-13T06:03:31;97376.50;;;-2.92;100.00
12624;BME280;6377;42.836;23.998;2023-02-13T06:05:58;97381.34;;;-2.83;100.00
12624;BME280;6377;42.836;23.998;2023-02-13T06:21:50;97382.94;;;-3.27;100.00
12624;BME280;6377;42.836;23.998;2023-02-13T06:58:29;97529.09;;;-1.47;100.00
12624;BME280;6377;42.836;23.998;2023-02-13T07:01:02;97537.34;;;-1.37;100.00
12624;BME280;6377;42.836;23.998;2023-02-13T07:03:33;97532.84;;;-1.32;100.00
12624;BME280;6377;42.836;23.998;2023-02-13T07:06:07;97520.09;;;-1.38;100.00
12624;BME280;6377;42.836;23.998;2023-02-13T07:08:38;97528.06;;;-1.21;100.00
12624;BME280;6377;42.836;23.998;2023-02-13T07:11:06;97553.59;;;-0.90;100.00
12624;BME280;6377;42.836;23.998;2023-02-13T07:13:35;97513.72;;;-1.09;100.00
12624;BME280;6377;42.836;23.998;2023-02-13T07:16:06;97522.63;;;-0.95;100.00
12624;BME280;6377;42.836;23.998;2023-02-13T07:18:34;97454.44;;;-1.20;100.00
12624;BME280;6377;42.836;23.998;2023-02-13T07:21:02;97553.19;;;-0.60;100.00
12624;BME280;6377;42.836;23.998;2023-02-13T07:23:30;97534.78;;;-0.55;100.00
12624;BME280;6377;42.836;23.998;2023-02-13T07:25:58;97512.19;;;-0.53;100.00
12624;BME280;6377;42.836;23.998;2023-02-13T07:28:26;97556.97;;;-0.08;100.00
12624;BME280;6377;42.836;23.998;2023-02-13T07:30:55;97562.63;;;0.02;100.00
12624;BME280;6377;42.836;23.998;2023-02-13T07:33:23;97504.03;;;-0.25;100.00
12624;BME280;6377;42.836;23.998;2023-02-13T07:35:51;97513.03;;;-0.14;100.00
12624;BME280;6377;42.836;23.998;2023-02-13T07:38:19;97527.31;;;0.15;100.00
12624;BME280;6377;42.836;23.998;2023-02-13T07:40:46;97534.56;;;0.27;100.00
12624;BME280;6377;42.836;23.998;2023-02-13T07:43:14;97503.91;;;0.15;100.00
12624;BME280;6377;42.836;23.998;2023-02-13T07:45:41;97407.06;;;-0.27;100.00
12624;BME280;6377;42.836;23.998;2023-02-13T07:48:10;97498.13;;;0.27;100.00
12624;BME280;6377;42.836;23.998;2023-02-13T07:50:38;97484.78;;;0.35;100.00
12624;BME280;6377;42.836;23.998;2023-02-13T07:53:05;97495.09;;;0.36;100.00
12624;BME280;6377;42.836;23.998;2023-02-13T07:55:33;97468.19;;;0.37;100.00
12624;BME280;6377;42.836;23.998;2023-02-13T07:58:00;97521.19;;;0.89;100.00
12624;BME280;6377;42.836;23.998;2023-02-13T08:00:28;97504.00;;;0.85;100.00
12624;BME280;6377;42.836;23.998;2023-02-13T08:02:58;97481.81;;;0.95;100.00
12624;BME280;6377;42.836;23.998;2023-02-13T08:05:28;97535.34;;;1.37;100.00
12624;BME280;6377;42.836;23.998;2023-02-13T08:07:57;97520.91;;;1.30;100.00
12624;BME280;6377;42.836;23.998;2023-02-13T08:10:24;97497.38;;;1.31;100.00
12624;BME280;6377;42.836;23.998;2023-02-13T08:13:11;97504.63;;;1.59;100.00
12624;BME280;6377;42.836;23.998;2023-02-13T08:15:39;97506.84;;;1.66;100.00
12624;BME280;6377;42.836;23.998;2023-02-13T08:18:09;97520.03;;;1.81;100.00
12624;BME280;6377;42.836;23.998;2023-02-13T08:20:38;97449.06;;;1.41;100.00
12624;BME280;6377;42.836;23.998;2023-02-13T08:23:08;97523.00;;;2.06;100.00
12624;BME280;6377;42.836;23.998;2023-02-13T08:25:37;97520.00;;;2.13;100.00
12624;BME280;6377;42.836;23.998;2023-02-13T08:28:04;97452.34;;;1.78;100.00
12624;BME280;6377;42.836;23.998;2023-02-13T08:30:34;97468.53;;;2.00;100.00
12624;BME280;6377;42.836;23.998;2023-02-13T08:33:11;97483.91;;;2.21;100.00
12624;BME280;6377;42.836;23.998;2023-02-13T08:35:39;97454.16;;;2.24;100.00
12624;BME280;6377;42.836;23.998;2023-02-13T08:41:46;97521.72;;;2.93;100.00
12624;BME280;6377;42.836;23.998;2023-02-13T08:47:27;97474.31;;;2.99;100.00
12624;BME280;6377;42.836;23.998;2023-02-13T08:49:54;97465.66;;;3.12;100.00
12624;BME280;6377;42.836;23.998;2023-02-13T08:52:23;97494.47;;;3.40;99.49
12624;BME280;6377;42.836;23.998;2023-02-13T08:54:51;97510.88;;;3.58;96.62
12624;BME280;6377;42.836;23.998;2023-02-13T08:57:20;97501.66;;;3.67;97.94
12624;BME280;6377;42.836;23.998;2023-02-13T08:59:47;97480.69;;;3.53;94.32
12624;BME280;6377;42.836;23.998;2023-02-13T09:02:15;97479.03;;;3.80;92.36
12624;BME280;6377;42.836;23.998;2023-02-13T09:04:42;97420.81;;;3.62;93.89
12624;BME280;6377;42.836;23.998;2023-02-13T09:07:09;97436.00;;;4.12;91.74
12624;BME280;6377;42.836;23.998;2023-02-13T09:09:38;97489.88;;;4.71;91.88
12624;BME280;6377;42.836;23.998;2023-02-13T09:12:05;97486.94;;;5.02;86.08
12624;BME280;6377;42.836;23.998;2023-02-13T09:14:33;97476.16;;;5.07;86.87
12624;BME280;6377;42.836;23.998;2023-02-13T09:17:00;97493.22;;;5.39;80.68
12624;BME280;6377;42.836;23.998;2023-02-13T09:19:29;97478.91;;;5.18;80.30
12624;BME280;6377;42.836;23.998;2023-02-13T09:21:59;97462.03;;;5.22;81.48
12624;BME280;6377;42.836;23.998;2023-02-13T09:24:26;97475.84;;;5.63;78.87
12624;BME280;6377;42.836;23.998;2023-02-13T09:26:55;97454.09;;;5.61;75.54
12624;BME280;6377;42.836;23.998;2023-02-13T09:29:23;97453.25;;;5.74;73.25
12624;BME280;6377;42.836;23.998;2023-02-13T09:31:56;97460.28;;;5.73;72.02
12624;BME280;6377;42.836;23.998;2023-02-13T09:34:24;97445.91;;;5.53;74.45
12624;BME280;6377;42.836;23.998;2023-02-13T09:36:51;97494.56;;;5.97;74.29
12624;BME280;6377;42.836;23.998;2023-02-13T09:39:19;97422.28;;;5.66;73.67
12624;BME280;6377;42.836;23.998;2023-02-13T09:41:48;97467.88;;;6.03;73.34
12624;BME280;6377;42.836;23.998;2023-02-13T09:44:24;97468.56;;;6.43;73.91
12624;BME280;6377;42.836;23.998;2023-02-13T09:47:02;97426.28;;;6.46;72.74
12624;BME280;6377;42.836;23.998;2023-02-13T09:49:34;97447.44;;;6.92;69.67
12624;BME280;6377;42.836;23.998;2023-02-13T09:52:03;97425.19;;;6.96;68.17
12624;BME280;6377;42.836;23.998;2023-02-13T09:54:30;97447.72;;;7.11;66.83
12624;BME280;6377;42.836;23.998;2023-02-13T09:57:00;97441.47;;;7.24;65.65
12624;BME280;6377;42.836;23.998;2023-02-13T09:59:56;97406.03;;;7.17;62.88
12624;BME280;6377;42.836;23.998;2023-02-13T10:02:41;97396.13;;;6.86;62.81
12624;BME280;6377;42.836;23.998;2023-02-13T10:05:20;97427.06;;;7.17;66.39
12624;BME280;6377;42.836;23.998;2023-02-13T10:07:56;97429.09;;;7.14;61.70
12624;BME280;6377;42.836;23.998;2023-02-13T10:10:30;97419.94;;;7.30;63.19
12624;BME280;6377;42.836;23.998;2023-02-13T10:13:12;97408.75;;;7.84;62.60
12624;BME280;6377;42.836;23.998;2023-02-13T10:15:53;97414.53;;;8.00;59.05
12624;BME280;6377;42.836;23.998;2023-02-13T10:18:29;97403.75;;;8.03;59.29
12624;BME280;6377;42.836;23.998;2023-02-13T10:21:01;97399.31;;;8.15;59.12
12624;BME280;6377;42.836;23.998;2023-02-13T10:23:33;97403.22;;;8.42;55.12
12624;BME280;6377;42.836;23.998;2023-02-13T10:26:05;97367.34;;;8.62;56.49
12624;BME280;6377;42.836;23.998;2023-02-13T10:28:37;97391.25;;;8.81;53.62
12624;BME280;6377;42.836;23.998;2023-02-13T10:31:09;97371.53;;;8.96;52.50
12624;BME280;6377;42.836;23.998;2023-02-13T10:33:45;97375.03;;;9.59;53.39
12624;BME280;6377;42.836;23.998;2023-02-13T10:36:18;97374.94;;;10.00;46.62
12624;BME280;6377;42.836;23.998;2023-02-13T10:38:55;97367.78;;;10.22;48.89
12624;BME280;6377;42.836;23.998;2023-02-13T10:41:24;97367.31;;;10.66;45.91
12624;BME280;6377;42.836;23.998;2023-02-13T10:44:09;97345.91;;;10.88;44.84
12624;BME280;6377;42.836;23.998;2023-02-13T10:46:53;97353.84;;;10.98;46.06
12624;BME280;6377;42.836;23.998;2023-02-13T10:49:51;97347.69;;;10.88;45.24
12624;BME280;6377;42.836;23.998;2023-02-13T10:52:30;97352.66;;;11.48;45.58
12624;BME280;6377;42.836;23.998;2023-02-13T10:55:23;97356.16;;;11.39;42.24
12624;BME280;6377;42.836;23.998;2023-02-13T10:58:06;97360.56;;;10.24;44.09
12624;BME280;6377;42.836;23.998;2023-02-13T11:00:39;97360.72;;;10.32;44.60
12624;BME280;6377;42.836;23.998;2023-02-13T11:03:18;97353.69;;;10.71;44.38
12624;BME280;6377;42.836;23.998;2023-02-13T11:05:45;97354.81;;;11.06;42.60
12624;BME280;6377;42.836;23.998;2023-02-13T11:08:17;97327.75;;;11.22;42.66
12624;BME280;6377;42.836;23.998;2023-02-13T11:10:46;97340.16;;;11.87;41.27
12624;BME280;6377;42.836;23.998;2023-02-13T11:13:16;97345.03;;;12.19;40.44
12624;BME280;6377;42.836;23.998;2023-02-13T11:15:56;97358.00;;;11.95;38.89
12624;BME280;6377;42.836;23.998;2023-02-13T11:18:31;97292.38;;;10.75;39.65
12624;BME280;6377;42.836;23.998;2023-02-13T11:21:06;97327.75;;;11.22;40.75
12624;BME280;6377;42.836;23.998;2023-02-13T11:23:37;97332.56;;;11.55;40.16
12624;BME280;6377;42.836;23.998;2023-02-13T11:26:07;97330.41;;;11.78;38.72
12624;BME280;6377;42.836;23.998;2023-02-13T11:28:37;97291.78;;;11.75;39.29
12624;BME280;6377;42.836;23.998;2023-02-13T11:31:14;97318.81;;;12.33;38.00
12624;BME280;6377;42.836;23.998;2023-02-13T11:33:46;97316.06;;;12.70;37.20
12624;BME280;6377;42.836;23.998;2023-02-13T11:36:15;97327.09;;;12.03;37.54
12624;BME280;6377;42.836;23.998;2023-02-13T11:38:43;97316.50;;;12.03;37.96
12624;BME280;6377;42.836;23.998;2023-02-13T11:41:12;97313.09;;;12.56;37.22
12624;BME280;6377;42.836;23.998;2023-02-13T11:43:45;97310.97;;;11.87;36.25
12624;BME280;6377;42.836;23.998;2023-02-13T11:46:18;97299.59;;;11.21;39.35
12624;BME280;6377;42.836;23.998;2023-02-13T11:48:58;97266.91;;;10.45;39.57
12624;BME280;6377;42.836;23.998;2023-02-13T11:51:37;97260.16;;;10.03;41.11
12624;BME280;6377;42.836;23.998;2023-02-13T11:54:05;97288.81;;;9.98;40.38
12624;BME280;6377;42.836;23.998;2023-02-13T11:56:48;97300.56;;;9.84;41.60
12624;BME280;6377;42.836;23.998;2023-02-13T11:59:16;97296.25;;;9.43;41.95
12624;BME280;6377;42.836;23.998;2023-02-13T12:01:43;97294.59;;;9.22;41.64
12624;BME280;6377;42.836;23.998;2023-02-13T12:04:16;97298.19;;;9.81;42.61
12624;BME280;6377;42.836;23.998;2023-02-13T12:06:58;97275.66;;;10.36;41.57
12624;BME280;6377;42.836;23.998;2023-02-13T12:09:26;97275.81;;;10.54;39.71
12624;BME280;6377;42.836;23.998;2023-02-13T12:11:56;97280.13;;;10.84;40.44
12624;BME280;6377;42.836;23.998;2023-02-13T12:14:27;97275.09;;;10.90;38.16
12624;BME280;6377;42.836;23.998;2023-02-13T12:16:59;97273.59;;;10.78;38.69
12624;BME280;6377;42.836;23.998;2023-02-13T12:19:34;97138.53;;;9.93;39.69
12624;BME280;6377;42.836;23.998;2023-02-13T12:22:13;97272.00;;;11.04;38.17
12624;BME280;6377;42.836;23.998;2023-02-13T12:24:56;97266.34;;;10.71;37.86
12624;BME280;6377;42.836;23.998;2023-02-13T12:27:28;97264.69;;;10.41;38.38
12624;BME280;6377;42.836;23.998;2023-02-13T12:30:22;97261.06;;;10.32;39.86
12624;BME280;6377;42.836;23.998;2023-02-13T12:32:58;97265.09;;;10.46;40.41
12624;BME280;6377;42.836;23.998;2023-02-13T12:35:42;97264.94;;;10.28;40.43
12624;BME280;6377;42.836;23.998;2023-02-13T12:38:21;97258.19;;;10.05;39.35
12624;BME280;6377;42.836;23.998;2023-02-13T12:41:02;97257.72;;;9.81;41.27
12624;BME280;6377;42.836;23.998;2023-02-13T12:44:13;97262.47;;;9.47;40.88
12624;BME280;6377;42.836;23.998;2023-02-13T12:47:03;97241.88;;;9.41;41.28
12624;BME280;6377;42.836;23.998;2023-02-13T12:49:51;97194.84;;;8.95;43.01
12624;BME280;6377;42.836;23.998;2023-02-13T12:52:35;97240.47;;;9.07;42.01
12624;BME280;6377;42.836;23.998;2023-02-13T12:55:26;97231.03;;;8.83;44.96
12624;BME280;6377;42.836;23.998;2023-02-13T12:58:07;97207.50;;;8.50;43.72
12624;BME280;6377;42.836;23.998;2023-02-13T13:00:46;97244.16;;;8.53;44.26
12624;BME280;6377;42.836;23.998;2023-02-13T13:03:45;97238.69;;;8.45;44.41
12624;BME280;6377;42.836;23.998;2023-02-13T13:06:32;97239.06;;;8.40;44.92
12624;BME280;6377;42.836;23.998;2023-02-13T13:09:28;97144.78;;;7.69;45.80
12624;BME280;6377;42.836;23.998;2023-02-13T13:12:22;97238.97;;;8.20;44.62
12624;BME280;6377;42.836;23.998;2023-02-13T13:14:55;97232.00;;;7.98;45.55
12624;BME280;6377;42.836;23.998;2023-02-13T13:17:39;97169.50;;;7.46;45.53
12624;BME280;6377;42.836;23.998;2023-02-13T13:20:35;97227.25;;;7.81;45.51
12624;BME280;6377;42.836;23.998;2023-02-13T13:23:10;97233.75;;;7.66;46.97
12624;BME280;6377;42.836;23.998;2023-02-13T13:25:45;97228.38;;;7.56;46.84
12624;BME280;6377;42.836;23.998;2023-02-13T13:28:17;97198.50;;;7.24;49.91
12624;BME280;6377;42.836;23.998;2023-02-13T13:30:46;97223.25;;;7.44;49.04
12624;BME280;6377;42.836;23.998;2023-02-13T13:33:16;97161.78;;;7.11;48.14
12624;BME280;6377;42.836;23.998;2023-02-13T13:35:49;97214.75;;;7.40;47.46
12624;BME280;6377;42.836;23.998;2023-02-13T13:38:24;97184.75;;;7.20;48.83
12624;BME280;6377;42.836;23.998;2023-02-13T13:41:03;97195.63;;;7.27;50.11
12624;BME280;6377;42.836;23.998;2023-02-13T13:43:39;97188.69;;;7.15;50.73
12624;BME280;6377;42.836;23.998;2023-02-13T13:46:13;97220.13;;;7.16;50.62
12624;BME280;6377;42.836;23.998;2023-02-13T13:48:59;97210.09;;;6.99;48.65
12624;BME280;6377;42.836;23.998;2023-02-13T13:51:35;97215.63;;;7.07;48.52
12624;BME280;6377;42.836;23.998;2023-02-13T13:54:23;97213.81;;;6.97;50.68
12624;BME280;6377;42.836;23.998;2023-02-13T13:57:13;97173.03;;;6.69;50.41
12624;BME280;6377;42.836;23.998;2023-02-13T14:02:46;97206.16;;;6.94;53.24
12624;BME280;6377;42.836;23.998;2023-02-13T14:05:24;97209.16;;;6.89;51.04
12624;BME280;6377;42.836;23.998;2023-02-13T14:07:53;97204.50;;;6.93;52.54
12624;BME280;6377;42.836;23.998;2023-02-13T14:13:37;97202.19;;;6.77;54.81
12624;BME280;6377;42.836;23.998;2023-02-13T14:16:08;97185.56;;;6.65;55.33
12624;BME280;6377;42.836;23.998;2023-02-13T14:18:37;97178.63;;;6.53;56.54
12624;BME280;6377;42.836;23.998;2023-02-13T14:21:11;97192.47;;;6.66;54.84
12624;BME280;6377;42.836;23.998;2023-02-13T14:23:49;97041.09;;;5.74;52.86
12624;BME280;6377;42.836;23.998;2023-02-13T14:26:29;97185.34;;;6.80;52.44
12624;BME280;6377;42.836;23.998;2023-02-13T14:29:13;97186.66;;;6.74;53.53
12624;BME280;6377;42.836;23.998;2023-02-13T14:31:54;97182.47;;;6.71;53.81
12624;BME280;6377;42.836;23.998;2023-02-13T14:34:27;97182.56;;;6.70;52.66
12624;BME280;6377;42.836;23.998;2023-02-13T14:37:06;97175.53;;;6.70;52.25
12624;BME280;6377;42.836;23.998;2023-02-13T14:39:42;97188.66;;;6.70;54.26
12624;BME280;6377;42.836;23.998;2023-02-13T14:42:22;97177.81;;;6.75;54.81
12624;BME280;6377;42.836;23.998;2023-02-13T14:44:55;97183.06;;;6.75;53.22
12624;BME280;6377;42.836;23.998;2023-02-13T14:47:28;97182.34;;;6.84;51.13
12624;BME280;6377;42.836;23.998;2023-02-13T14:49:57;97195.16;;;6.78;52.00
12624;BME280;6377;42.836;23.998;2023-02-13T14:52:27;97189.75;;;6.79;53.57